createdAt,value
2023-01-10T00:00:42.083Z,6.70
2023-01-10T00:03:28.501Z,4.80
2023-01-10T00:05:56.916Z,4.60
2023-01-10T00:08:25.171Z,7.50
2023-01-10T00:10:53.398Z,4.20
2023-01-10T00:13:24.514Z,3.60
2023-01-10T00:15:54.794Z,2.80
2023-01-10T00:18:23.603Z,5.50
2023-01-10T00:20:51.914Z,5.10
2023-01-10T00:23:23.537Z,2.30
2023-01-10T00:25:51.740Z,5.70
2023-01-10T00:28:20.431Z,5.50
2023-01-10T00:30:57.446Z,4.00
2023-01-10T00:33:26.080Z,13.20
2023-01-10T00:35:54.688Z,4.70
2023-01-10T00:38:22.965Z,3.90
2023-01-10T00:40:51.275Z,7.50
2023-01-10T00:43:38.876Z,4.60
2023-01-10T00:46:09.362Z,4.00
2023-01-10T00:48:38.437Z,4.50
2023-01-10T00:51:24.120Z,6.60
2023-01-10T00:54:04.205Z,3.50
2023-01-10T00:56:32.604Z,10.40
2023-01-10T00:59:01.651Z,5.60
2023-01-10T01:02:09.237Z,7.50
2023-01-10T01:05:19.719Z,2.30
2023-01-10T01:07:51.285Z,3.90
2023-01-10T01:10:29.013Z,4.30
2023-01-10T01:13:00.007Z,9.20
2023-01-10T01:15:28.583Z,3.40
2023-01-10T01:17:58.415Z,7.20
2023-01-10T01:21:08.307Z,5.80
2023-01-10T01:23:40.740Z,3.10
2023-01-10T01:26:09.011Z,7.00
2023-01-10T01:28:39.476Z,3.90
2023-01-10T01:31:11.227Z,3.30
2023-01-10T01:33:39.650Z,3.40
2023-01-10T01:36:09.958Z,3.70
2023-01-10T01:39:00.079Z,5.50
2023-01-10T01:41:51.188Z,5.60
2023-01-10T01:44:20.734Z,5.10
2023-01-10T01:47:02.702Z,10.20
2023-01-10T01:49:39.055Z,9.10
2023-01-10T01:52:30.555Z,3.50
2023-01-10T01:55:00.264Z,7.80
2023-01-10T01:57:32.652Z,2.70
2023-01-10T02:00:02.992Z,8.70
2023-01-10T02:03:01.787Z,7.90
2023-01-10T02:05:49.757Z,7.30
2023-01-10T02:08:18.030Z,12.10
2023-01-10T02:11:18.443Z,1.90
2023-01-10T02:13:48.130Z,2.00
2023-01-10T02:16:16.915Z,3.30
2023-01-10T02:18:46.080Z,6.60
2023-01-10T02:21:35.332Z,2.40
2023-01-10T02:24:32.278Z,6.00
2023-01-10T02:28:21.639Z,9.50
2023-01-10T02:36:08.815Z,6.50
2023-01-10T02:38:58.514Z,8.10
2023-01-10T02:41:52.043Z,5.90
2023-01-10T02:44:55.979Z,4.90
2023-01-10T02:47:38.016Z,7.70
2023-01-10T02:50:24.836Z,6.00
2023-01-10T02:52:53.294Z,8.00
2023-01-10T02:55:27.154Z,6.10
2023-01-10T02:58:11.003Z,7.90
2023-01-10T03:00:39.203Z,4.00
2023-01-10T03:03:13.281Z,7.10
2023-01-10T03:05:51.248Z,14.80
2023-01-10T03:08:55.126Z,3.20
2023-01-10T03:11:42.644Z,9.00
2023-01-10T03:14:25.246Z,6.70
2023-01-10T03:16:59.908Z,6.90
2023-01-10T03:19:39.112Z,8.80
2023-01-10T03:22:11.497Z,5.40
2023-01-10T03:24:42.778Z,5.00
2023-01-10T03:27:34.271Z,3.10
2023-01-10T03:30:53.838Z,4.30
2023-01-10T03:33:43.877Z,3.60
2023-01-10T03:36:16.986Z,8.00
2023-01-10T03:38:51.141Z,9.60
2023-01-10T03:41:37.836Z,4.50
2023-01-10T03:44:44.243Z,7.00
2023-01-10T03:47:34.176Z,4.50
2023-01-10T03:50:16.610Z,7.60
2023-01-10T03:52:45.522Z,3.60
2023-01-10T03:55:18.700Z,7.90
2023-01-10T03:57:48.671Z,5.10
2023-01-10T04:00:17.476Z,4.00
2023-01-10T04:02:55.975Z,6.80
2023-01-10T04:05:25.093Z,2.50
2023-01-10T04:07:53.511Z,5.30
2023-01-10T04:10:44.091Z,7.10
2023-01-10T04:13:14.352Z,11.70
2023-01-10T04:15:42.583Z,6.00
2023-01-10T04:18:13.256Z,5.40
2023-01-10T04:20:41.627Z,4.60
2023-01-10T04:23:09.964Z,4.60
2023-01-10T04:25:38.268Z,3.30
2023-01-10T04:28:06.495Z,6.90
2023-01-10T04:30:34.830Z,6.50
2023-01-10T04:33:04.353Z,5.40
2023-01-10T04:35:32.608Z,9.80
2023-01-10T04:38:01.062Z,5.10
2023-01-10T04:40:29.324Z,6.50
2023-01-10T04:42:57.574Z,9.10
2023-01-10T04:45:26.533Z,9.20
2023-01-10T04:48:59.195Z,13.10
2023-01-10T04:51:28.621Z,8.90
2023-01-10T04:53:56.956Z,8.00
2023-01-10T04:56:26.172Z,11.70
2023-01-10T04:58:54.458Z,4.20
2023-01-10T05:01:26.519Z,7.30
2023-01-10T05:03:56.163Z,7.70
2023-01-10T05:06:25.651Z,9.10
2023-01-10T05:08:53.994Z,3.80
2023-01-10T05:11:22.453Z,6.00
2023-01-10T05:13:51.400Z,18.40
2023-01-10T05:16:19.758Z,14.10
2023-01-10T05:18:48.620Z,6.40
2023-01-10T05:21:18.394Z,9.00
2023-01-10T05:23:47.260Z,9.00
2023-01-10T05:26:20.808Z,10.40
2023-01-10T05:28:58.522Z,8.00
2023-01-10T05:31:29.746Z,7.10
2023-01-10T05:34:25.373Z,6.20
2023-01-10T05:36:55.787Z,8.10
2023-01-10T05:39:26.961Z,13.10
2023-01-10T05:41:56.877Z,5.20
2023-01-10T05:44:26.218Z,6.50
2023-01-10T05:46:55.166Z,3.90
2023-01-10T05:49:25.181Z,10.00
2023-01-10T05:51:54.186Z,4.50
2023-01-10T05:54:22.921Z,8.40
2023-01-10T05:56:51.166Z,9.40
2023-01-10T05:59:47.664Z,7.00
2023-01-10T06:03:00.119Z,8.80
2023-01-10T06:05:28.769Z,7.10
2023-01-10T06:07:57.035Z,9.00
2023-01-10T06:10:27.214Z,5.70
2023-01-10T06:13:09.979Z,7.00
2023-01-10T06:15:38.389Z,7.50
2023-01-10T06:18:10.516Z,12.60
2023-01-10T06:20:52.692Z,11.00
2023-01-10T06:23:42.612Z,7.20
2023-01-10T06:26:59.373Z,8.00
2023-01-10T06:29:35.758Z,7.30
2023-01-10T06:32:23.609Z,9.70
2023-01-10T06:34:53.689Z,5.80
2023-01-10T06:37:21.915Z,18.40
2023-01-10T06:39:52.189Z,9.10
2023-01-10T06:42:20.429Z,9.90
2023-01-10T06:44:50.110Z,14.20
2023-01-10T06:47:21.618Z,15.50
2023-01-10T06:49:50.319Z,14.00
2023-01-10T06:52:18.609Z,9.60
2023-01-10T06:54:49.322Z,16.20
2023-01-10T06:57:19.446Z,13.50
2023-01-10T06:59:49.199Z,9.40
2023-01-10T07:02:19.450Z,10.90
2023-01-10T07:04:54.197Z,11.40
2023-01-10T07:07:45.651Z,10.60
2023-01-10T07:10:15.160Z,12.70
2023-01-10T07:12:48.115Z,21.80
2023-01-10T07:15:16.386Z,16.20
2023-01-10T07:17:45.272Z,16.20
2023-01-10T07:20:13.729Z,15.90
2023-01-10T07:22:42.618Z,9.50
2023-01-10T07:25:11.068Z,9.00
2023-01-10T07:27:43.479Z,11.80
2023-01-10T07:30:11.999Z,10.10
2023-01-10T07:33:01.524Z,11.80
2023-01-10T07:35:32.142Z,12.00
2023-01-10T07:38:01.079Z,7.40
2023-01-10T07:40:31.944Z,8.30
2023-01-10T07:43:02.683Z,13.50
2023-01-10T07:45:31.621Z,13.30
2023-01-10T07:48:02.298Z,12.30
2023-01-10T07:50:34.980Z,9.90
2023-01-10T07:53:07.297Z,8.20
2023-01-10T07:55:39.336Z,8.30
2023-01-10T07:58:08.694Z,7.50
2023-01-10T08:00:37.732Z,5.40
2023-01-10T08:03:07.257Z,7.30
2023-01-10T08:05:36.862Z,4.40
2023-01-10T08:08:10.654Z,14.50
2023-01-10T08:10:43.316Z,12.10
2023-01-10T08:13:18.802Z,10.20
2023-01-10T08:15:55.793Z,10.60
2023-01-10T08:18:26.901Z,18.20
2023-01-10T08:21:05.269Z,9.50
2023-01-10T08:23:33.749Z,13.70
2023-01-10T08:26:03.301Z,17.10
2023-01-10T08:28:34.308Z,12.80
2023-01-10T08:31:08.279Z,19.30
2023-01-10T08:36:17.448Z,5.40
2023-01-10T08:39:04.525Z,10.10
2023-01-10T08:41:34.009Z,11.10
2023-01-10T08:44:02.266Z,9.30
2023-01-10T08:46:30.593Z,11.10
2023-01-10T08:48:58.855Z,7.40
2023-01-10T08:51:29.590Z,7.90
2023-01-10T08:54:07.763Z,8.60
2023-01-10T08:56:40.909Z,5.30
2023-01-10T08:59:10.109Z,11.60
2023-01-10T09:01:39.260Z,11.60
2023-01-10T09:04:09.247Z,10.20
2023-01-10T09:06:37.979Z,6.30
2023-01-10T09:09:14.731Z,7.00
2023-01-10T09:12:28.293Z,13.90
2023-01-10T09:14:56.710Z,11.10
2023-01-10T09:17:25.085Z,7.10
2023-01-10T09:19:53.430Z,13.00
2023-01-10T09:22:21.902Z,8.40
2023-01-10T09:24:51.358Z,7.70
2023-01-10T09:27:19.591Z,11.30
2023-01-10T09:29:47.897Z,7.80
2023-01-10T09:32:19.062Z,11.90
2023-01-10T09:34:53.545Z,12.30
2023-01-10T09:37:21.801Z,11.50
2023-01-10T09:40:18.537Z,10.40
2023-01-10T09:42:54.740Z,10.30
2023-01-10T09:45:45.989Z,11.60
2023-01-10T09:48:27.938Z,13.00
2023-01-10T09:51:12.127Z,9.50
2023-01-10T09:53:44.068Z,10.80
2023-01-10T09:56:15.322Z,11.90
2023-01-10T09:58:46.077Z,12.70
2023-01-10T10:01:22.578Z,10.50
2023-01-10T10:05:02.660Z,11.10
2023-01-10T10:07:52.451Z,9.10
2023-01-10T10:10:25.453Z,13.60
2023-01-10T10:13:32.876Z,8.30
2023-01-10T10:16:20.839Z,13.40
2023-01-10T10:19:07.350Z,13.40
2023-01-10T10:21:50.916Z,10.50
2023-01-10T10:24:43.250Z,11.00
2023-01-10T10:27:18.521Z,14.90
2023-01-10T10:30:13.955Z,8.70
2023-01-10T10:33:17.816Z,9.00
2023-01-10T10:35:53.180Z,10.30
2023-01-10T10:38:31.074Z,9.50
2023-01-10T10:41:01.750Z,14.70
2023-01-10T10:43:34.341Z,13.70
2023-01-10T10:46:08.269Z,13.80
2023-01-10T10:48:55.053Z,12.80
2023-01-10T10:51:34.247Z,14.60
2023-01-10T10:54:03.109Z,10.70
2023-01-10T10:56:31.379Z,7.40
2023-01-10T10:59:00.853Z,8.50
2023-01-10T11:01:29.305Z,10.20
2023-01-10T11:04:01.520Z,8.20
2023-01-10T11:06:33.967Z,11.00
2023-01-10T11:09:05.468Z,8.90
2023-01-10T11:11:38.961Z,14.90
2023-01-10T11:14:41.959Z,9.80
2023-01-10T11:17:23.128Z,8.20
2023-01-10T11:20:04.954Z,10.20
2023-01-10T11:22:55.004Z,12.90
2023-01-10T11:25:23.564Z,12.00
2023-01-10T11:27:55.456Z,8.30
2023-01-10T11:30:33.839Z,9.10
2023-01-10T11:33:06.027Z,9.00
2023-01-10T11:35:38.611Z,8.00
2023-01-10T11:38:38.313Z,8.80
2023-01-10T11:41:19.649Z,8.40
2023-01-10T11:43:49.327Z,13.30
2023-01-10T11:46:23.362Z,11.00
2023-01-10T11:51:59.438Z,11.00
2023-01-10T11:54:50.273Z,9.90
2023-01-10T11:57:22.895Z,8.50
2023-01-10T11:59:57.991Z,15.60
2023-01-10T12:02:36.151Z,11.40
2023-01-10T12:05:13.847Z,14.50
2023-01-10T12:08:06.988Z,11.20
2023-01-10T12:10:35.955Z,10.90
2023-01-10T12:13:16.117Z,9.00
2023-01-10T12:15:44.566Z,12.80
2023-01-10T12:18:13.169Z,9.80
2023-01-10T12:20:51.694Z,14.80
2023-01-10T12:23:24.109Z,9.10
2023-01-10T12:26:07.166Z,7.10
2023-01-10T12:29:03.040Z,10.70
2023-01-10T12:31:33.765Z,6.70
2023-01-10T12:34:40.359Z,8.90
2023-01-10T12:38:05.428Z,10.30
2023-01-10T12:40:46.978Z,10.10
2023-01-10T12:43:44.553Z,9.50
2023-01-10T12:46:38.264Z,9.60
2023-01-10T12:49:27.975Z,8.10
2023-01-10T12:52:01.301Z,12.00
2023-01-10T12:54:31.238Z,8.60
2023-01-10T12:57:05.820Z,9.00
2023-01-10T12:59:41.417Z,8.80
2023-01-10T13:02:19.916Z,8.60
2023-01-10T13:04:57.564Z,12.70
2023-01-10T13:07:33.414Z,11.20
2023-01-10T13:10:05.016Z,12.90
2023-01-10T13:12:44.740Z,13.90
2023-01-10T13:15:30.864Z,14.10
2023-01-10T13:18:03.937Z,13.70
2023-01-10T13:20:43.174Z,10.20
2023-01-10T13:23:34.297Z,14.80
2023-01-10T13:26:06.148Z,12.70
2023-01-10T13:28:37.672Z,14.60
2023-01-10T13:31:23.983Z,14.40
2023-01-10T13:33:56.647Z,19.00
2023-01-10T13:36:28.681Z,16.70
2023-01-10T13:39:12.835Z,13.40
2023-01-10T13:42:18.580Z,11.10
2023-01-10T13:45:02.516Z,19.60
2023-01-10T13:47:40.227Z,17.10
2023-01-10T13:50:46.959Z,14.60
2023-01-10T13:53:17.733Z,22.60
2023-01-10T13:55:48.019Z,20.80
2023-01-10T13:58:16.238Z,14.40
2023-01-10T14:01:31.940Z,17.00
2023-01-10T14:04:00.287Z,12.90
2023-01-10T14:06:28.451Z,17.70
2023-01-10T14:09:02.231Z,20.60
2023-01-10T14:11:45.764Z,17.70
2023-01-10T14:14:38.438Z,16.10
2023-01-10T14:17:21.781Z,16.30
2023-01-10T14:20:01.004Z,17.90
2023-01-10T14:22:33.102Z,14.80
2023-01-10T14:25:04.675Z,19.80
2023-01-10T14:31:48.781Z,19.50
2023-01-10T14:34:50.864Z,16.30
2023-01-10T14:39:59.617Z,14.50
2023-01-10T14:43:16.416Z,14.00
2023-01-10T14:46:20.490Z,10.90
2023-01-10T14:49:01.192Z,23.10
2023-01-10T14:51:31.150Z,30.70
2023-01-10T14:54:12.728Z,17.00
2023-01-10T14:56:46.795Z,14.30
2023-01-10T14:59:29.945Z,19.40
2023-01-10T15:02:01.315Z,21.30
2023-01-10T15:04:33.367Z,23.50
2023-01-10T15:07:13.416Z,14.80
2023-01-10T15:09:49.209Z,25.90
2023-01-10T15:12:18.762Z,13.90
2023-01-10T15:14:50.520Z,29.70
2023-01-10T15:17:25.901Z,25.10
2023-01-10T15:20:44.120Z,26.90
2023-01-10T15:23:15.603Z,27.30
2023-01-10T15:25:46.645Z,30.10
2023-01-10T15:28:17.823Z,20.20
2023-01-10T15:30:47.029Z,25.50
2023-01-10T15:33:36.135Z,19.50
2023-01-10T15:36:27.152Z,24.80
2023-01-10T15:38:56.739Z,20.90
2023-01-10T15:41:26.218Z,20.50
2023-01-10T15:44:24.325Z,22.10
2023-01-10T15:47:00.401Z,19.50
2023-01-10T15:49:29.738Z,26.40
2023-01-10T15:51:59.182Z,22.10
2023-01-10T15:54:29.672Z,15.90
2023-01-10T16:00:59.716Z,13.30
2023-01-10T16:03:57.600Z,20.50
2023-01-10T16:07:00.991Z,21.00
2023-01-10T16:09:31.886Z,20.70
2023-01-10T16:12:19.199Z,17.50
2023-01-10T16:14:47.730Z,21.20
2023-01-10T16:17:17.815Z,16.80
2023-01-10T16:19:46.070Z,15.70
2023-01-10T16:22:19.594Z,21.40
2023-01-10T16:24:50.756Z,24.80
2023-01-10T16:27:21.729Z,29.60
2023-01-10T16:29:49.956Z,19.70
2023-01-10T16:32:18.316Z,18.60
2023-01-10T16:34:46.617Z,20.30
2023-01-10T16:37:15.294Z,14.90
2023-01-10T16:39:44.891Z,15.30
2023-01-10T16:42:31.964Z,15.30
2023-01-10T16:45:00.290Z,14.00
2023-01-10T16:47:28.684Z,13.30
2023-01-10T16:49:57.189Z,15.60
2023-01-10T16:52:25.479Z,21.80
2023-01-10T16:55:14.914Z,18.80
2023-01-10T16:57:46.814Z,20.70
2023-01-10T17:00:15.957Z,23.20
2023-01-10T17:02:47.648Z,19.40
2023-01-10T17:05:18.442Z,22.30
2023-01-10T17:07:46.794Z,24.90
2023-01-10T17:10:15.177Z,21.50
2023-01-10T17:12:43.562Z,24.00
2023-01-10T17:15:14.743Z,21.20
2023-01-10T17:17:45.989Z,19.80
2023-01-10T17:20:15.701Z,22.70
2023-01-10T17:22:44.610Z,21.80
2023-01-10T17:25:17.286Z,20.20
2023-01-10T17:27:46.380Z,22.90
2023-01-10T17:30:15.451Z,26.50
2023-01-10T17:32:43.782Z,18.30
2023-01-10T17:35:12.119Z,23.10
2023-01-10T17:37:43.213Z,18.20
2023-01-10T17:40:12.143Z,18.10
2023-01-10T17:42:41.668Z,22.60
2023-01-10T17:45:11.616Z,17.40
2023-01-10T17:47:39.947Z,18.40
2023-01-10T17:50:48.940Z,26.40
2023-01-10T17:53:18.665Z,18.60
2023-01-10T17:55:48.619Z,17.60
2023-01-10T17:58:18.210Z,22.20
2023-01-10T18:00:46.704Z,21.00
2023-01-10T18:03:20.045Z,16.80
2023-01-10T18:05:58.119Z,20.20
2023-01-10T18:08:26.769Z,19.40
2023-01-10T18:11:02.367Z,25.20
2023-01-10T18:13:32.315Z,13.90
2023-01-10T18:16:36.247Z,15.90
2023-01-10T18:20:01.860Z,17.50
2023-01-10T18:23:14.004Z,19.30
2023-01-10T18:26:02.526Z,20.70
2023-01-10T18:28:43.093Z,16.60
2023-01-10T18:31:49.442Z,16.10
2023-01-10T18:34:19.757Z,28.10
2023-01-10T18:36:51.370Z,20.00
2023-01-10T18:40:02.812Z,24.60
2023-01-10T18:42:58.540Z,23.40
2023-01-10T18:45:59.353Z,23.60
2023-01-10T18:48:30.733Z,17.20
2023-01-10T18:51:02.353Z,20.10
2023-01-10T18:54:07.506Z,25.50
2023-01-10T18:56:40.627Z,25.80
2023-01-10T18:59:38.330Z,13.50
2023-01-10T19:02:09.612Z,21.90
2023-01-10T19:04:38.779Z,21.30
2023-01-10T19:07:07.359Z,24.00
2023-01-10T19:09:36.120Z,12.20
2023-01-10T19:12:05.970Z,15.40
2023-01-10T19:14:34.575Z,20.50
2023-01-10T19:17:03.705Z,14.90
2023-01-10T19:19:31.983Z,15.80
2023-01-10T19:22:02.359Z,14.00
2023-01-10T19:24:32.953Z,20.60
2023-01-10T19:27:01.267Z,20.40
2023-01-10T19:29:35.267Z,28.30
2023-01-10T19:32:11.383Z,23.40
2023-01-10T19:34:40.052Z,16.40
2023-01-10T19:37:19.372Z,23.60
2023-01-10T19:39:48.047Z,24.20
2023-01-10T19:42:16.596Z,14.60
2023-01-10T19:44:45.228Z,23.50
2023-01-10T19:47:18.482Z,32.30
2023-01-10T19:50:05.164Z,26.10
2023-01-10T19:53:15.576Z,22.50
2023-01-10T19:55:44.542Z,36.90
2023-01-10T19:58:14.202Z,26.00
2023-01-10T20:00:43.633Z,29.40
2023-01-10T20:03:11.805Z,22.30
2023-01-10T20:05:51.259Z,15.00
2023-01-10T20:08:22.203Z,16.80
2023-01-10T20:10:54.860Z,19.10
2023-01-10T20:13:25.351Z,24.30
2023-01-10T20:15:54.474Z,25.60
2023-01-10T20:18:28.801Z,24.30
2023-01-10T20:21:15.366Z,13.90
2023-01-10T20:23:45.128Z,16.20
2023-01-10T20:26:16.750Z,29.20
2023-01-10T20:28:47.506Z,30.00
2023-01-10T20:31:28.698Z,31.10
2023-01-10T20:34:38.811Z,29.10
2023-01-10T20:37:17.621Z,41.20
2023-01-10T20:40:16.337Z,34.80
2023-01-10T20:43:49.494Z,31.00
2023-01-10T20:46:44.339Z,24.70
2023-01-10T20:50:33.682Z,28.20
2023-01-10T20:53:02.581Z,25.30
2023-01-10T20:55:59.090Z,29.30
2023-01-10T20:58:32.658Z,27.90
2023-01-10T21:01:16.862Z,22.20
2023-01-10T21:04:09.069Z,21.80
2023-01-10T21:06:59.223Z,19.70
2023-01-10T21:10:20.128Z,31.10
2023-01-10T21:12:48.537Z,20.00
2023-01-10T21:15:16.858Z,26.50
2023-01-10T21:17:45.117Z,24.80
2023-01-10T21:20:13.921Z,22.20
2023-01-10T21:22:42.258Z,22.00
2023-01-10T21:25:10.791Z,20.20
2023-01-10T21:27:39.163Z,24.10
2023-01-10T21:31:00.576Z,33.90
2023-01-10T21:33:28.982Z,25.20
2023-01-10T21:35:58.895Z,25.90
2023-01-10T21:38:28.827Z,22.40
2023-01-10T21:41:04.717Z,20.70
2023-01-10T21:43:33.523Z,20.60
2023-01-10T21:46:01.997Z,22.30
2023-01-10T21:48:30.472Z,15.90
2023-01-10T21:50:58.880Z,17.70
2023-01-10T21:53:28.480Z,22.70
2023-01-10T21:56:02.634Z,16.70
2023-01-10T22:00:59.444Z,20.80
2023-01-10T22:03:27.846Z,20.80
2023-01-10T22:05:56.322Z,26.70
2023-01-10T22:08:24.614Z,21.70
2023-01-10T22:10:52.957Z,21.40
2023-01-10T22:13:21.211Z,21.40
2023-01-10T22:15:49.555Z,19.50
2023-01-10T22:18:17.839Z,23.00
2023-01-10T22:20:46.104Z,26.00
2023-01-10T22:23:14.421Z,19.20
2023-01-10T22:25:42.667Z,15.70
2023-01-10T22:28:12.581Z,21.10
2023-01-10T22:30:40.778Z,23.60
2023-01-10T22:33:09.031Z,22.30
2023-01-10T22:35:37.191Z,24.90
2023-01-10T22:38:05.404Z,20.60
2023-01-10T22:40:35.016Z,17.40
2023-01-10T22:43:03.353Z,16.20
2023-01-10T22:45:31.846Z,18.70
2023-01-10T22:48:00.161Z,24.40
2023-01-10T22:50:29.229Z,25.90
2023-01-10T22:52:57.506Z,22.30
2023-01-10T22:55:25.802Z,24.60
2023-01-10T22:57:54.173Z,20.90
2023-01-10T23:00:22.423Z,21.50
2023-01-10T23:02:50.827Z,16.40
2023-01-10T23:05:19.086Z,21.00
2023-01-10T23:07:47.943Z,17.50
2023-01-10T23:10:29.309Z,17.80
2023-01-10T23:12:58.704Z,22.60
2023-01-10T23:15:30.995Z,15.20
2023-01-10T23:18:00.190Z,13.20
2023-01-10T23:20:28.420Z,22.00
2023-01-10T23:22:56.644Z,23.60
2023-01-10T23:25:24.862Z,24.10
2023-01-10T23:27:53.663Z,20.60
2023-01-10T23:30:22.688Z,21.60
2023-01-10T23:32:51.524Z,15.70
2023-01-10T23:35:19.759Z,22.00
2023-01-10T23:37:48.092Z,32.10
2023-01-10T23:40:16.684Z,25.20
2023-01-10T23:42:44.805Z,17.90
2023-01-10T23:45:13.275Z,11.00
2023-01-10T23:47:41.626Z,23.60
2023-01-10T23:50:10.490Z,14.70
2023-01-10T23:52:38.717Z,25.10
2023-01-10T23:55:07.220Z,12.60
2023-01-10T23:57:35.402Z,17.20
